createdAt,value
2023-03-30T00:00:11.652Z,25.53
2023-03-30T00:01:11.659Z,25.53
2023-03-30T00:02:11.736Z,25.54
2023-03-30T00:03:11.894Z,25.52
2023-03-30T00:04:12.010Z,25.50
2023-03-30T00:05:12.062Z,25.51
2023-03-30T00:06:11.990Z,25.50
2023-03-30T00:07:12.037Z,25.48
2023-03-30T00:08:12.098Z,25.48
2023-03-30T00:09:12.143Z,25.47
2023-03-30T00:10:12.224Z,25.46
2023-03-30T00:11:12.286Z,25.46
2023-03-30T00:12:12.321Z,25.49
2023-03-30T00:13:12.425Z,25.46
2023-03-30T00:14:12.462Z,25.44
2023-03-30T00:15:12.615Z,25.45
2023-03-30T00:16:12.669Z,25.42
2023-03-30T00:17:12.631Z,25.45
2023-03-30T00:18:12.694Z,25.46
2023-03-30T00:19:12.761Z,25.45
2023-03-30T00:20:12.934Z,25.47
2023-03-30T00:21:12.884Z,25.46
2023-03-30T00:22:12.914Z,25.50
2023-03-30T00:23:12.960Z,25.47
2023-03-30T00:24:13.019Z,25.48
2023-03-30T00:25:13.062Z,25.49
2023-03-30T00:26:13.108Z,25.49
2023-03-30T00:27:13.122Z,25.53
2023-03-30T00:28:13.151Z,25.50
2023-03-30T00:29:13.250Z,25.53
2023-03-30T00:30:13.304Z,25.57
2023-03-30T00:31:13.355Z,25.57
2023-03-30T00:32:13.503Z,25.53
2023-03-30T00:33:13.477Z,25.55
2023-03-30T00:34:13.512Z,25.52
2023-03-30T00:35:13.575Z,25.55
2023-03-30T00:36:13.811Z,25.48
2023-03-30T00:37:13.696Z,25.46
2023-03-30T00:38:13.765Z,25.47
2023-03-30T00:39:13.837Z,25.43
2023-03-30T00:40:13.906Z,25.44
2023-03-30T00:41:14.006Z,25.40
2023-03-30T00:42:14.006Z,25.40
2023-03-30T00:43:14.070Z,25.39
2023-03-30T00:44:14.136Z,25.38
2023-03-30T00:45:14.215Z,25.38
2023-03-30T00:46:14.324Z,25.36
2023-03-30T00:47:14.320Z,25.36
2023-03-30T00:48:14.379Z,25.34
2023-03-30T00:49:14.464Z,25.33
2023-03-30T00:50:14.514Z,25.35
2023-03-30T00:51:14.571Z,25.36
2023-03-30T00:52:14.632Z,25.36
2023-03-30T00:53:14.708Z,25.34
2023-03-30T00:54:14.762Z,25.32
2023-03-30T00:55:14.833Z,25.33
2023-03-30T00:56:14.882Z,25.32
2023-03-30T00:57:14.966Z,25.31
2023-03-30T00:58:15.010Z,25.31
2023-03-30T00:59:15.095Z,25.31
2023-03-30T01:00:15.166Z,25.31
2023-03-30T01:01:15.244Z,25.31
2023-03-30T01:02:15.335Z,25.33
2023-03-30T01:03:15.372Z,25.32
2023-03-30T01:04:15.405Z,25.29
2023-03-30T01:05:15.450Z,25.32
2023-03-30T01:06:15.525Z,25.31
2023-03-30T01:07:15.594Z,25.33
2023-03-30T01:08:15.636Z,25.32
2023-03-30T01:09:15.715Z,25.32
2023-03-30T01:10:15.767Z,25.31
2023-03-30T01:11:15.837Z,25.29
2023-03-30T01:12:15.901Z,25.30
2023-03-30T01:13:15.956Z,25.32
2023-03-30T01:14:16.028Z,25.28
2023-03-30T01:15:16.076Z,25.28
2023-03-30T01:16:16.231Z,25.30
2023-03-30T01:17:16.216Z,25.32
2023-03-30T01:18:16.255Z,25.32
2023-03-30T01:19:16.363Z,25.34
2023-03-30T01:20:16.380Z,25.33
2023-03-30T01:21:16.452Z,25.34
2023-03-30T01:22:16.521Z,25.35
2023-03-30T01:23:16.577Z,25.37
2023-03-30T01:24:16.693Z,25.38
2023-03-30T01:25:16.691Z,25.38
2023-03-30T01:26:16.779Z,25.40
2023-03-30T01:27:16.811Z,25.38
2023-03-30T01:28:16.892Z,25.39
2023-03-30T01:29:16.958Z,25.41
2023-03-30T01:30:17.017Z,25.44
2023-03-30T01:31:17.121Z,25.41
2023-03-30T01:32:17.146Z,25.44
2023-03-30T01:33:17.201Z,25.45
2023-03-30T01:34:17.275Z,25.44
2023-03-30T01:35:17.414Z,25.46
2023-03-30T01:36:17.429Z,25.48
2023-03-30T01:37:17.462Z,25.48
2023-03-30T01:38:17.515Z,25.52
2023-03-30T01:39:17.606Z,25.46
2023-03-30T01:40:17.665Z,25.46
2023-03-30T01:41:17.711Z,25.46
2023-03-30T01:42:17.763Z,25.45
2023-03-30T01:43:17.859Z,25.46
2023-03-30T01:44:17.918Z,25.43
2023-03-30T01:45:17.964Z,25.42
2023-03-30T01:46:18.033Z,25.45
2023-03-30T01:47:18.074Z,25.45
2023-03-30T01:48:18.159Z,25.43
2023-03-30T01:49:18.221Z,25.44
2023-03-30T01:50:18.281Z,25.44
2023-03-30T01:51:18.339Z,25.43
2023-03-30T01:52:18.421Z,25.45
2023-03-30T01:53:18.484Z,25.45
2023-03-30T01:54:18.531Z,25.47
2023-03-30T01:55:18.593Z,25.46
2023-03-30T01:56:18.651Z,25.48
2023-03-30T01:57:18.766Z,25.48
2023-03-30T01:58:18.792Z,25.48
2023-03-30T01:59:18.834Z,25.47
2023-03-30T02:00:18.895Z,25.54
2023-03-30T02:01:18.959Z,25.49
2023-03-30T02:02:19.098Z,25.53
2023-03-30T02:03:19.102Z,25.53
2023-03-30T02:04:19.121Z,25.53
2023-03-30T02:05:19.176Z,25.55
2023-03-30T02:06:19.201Z,25.57
2023-03-30T02:07:19.259Z,25.55
2023-03-30T02:08:19.306Z,25.58
2023-03-30T02:09:19.353Z,25.61
2023-03-30T02:10:19.400Z,25.60
2023-03-30T02:11:19.499Z,25.61
2023-03-30T02:12:19.528Z,25.63
2023-03-30T02:13:19.576Z,25.64
2023-03-30T02:14:19.654Z,25.69
2023-03-30T02:15:19.738Z,25.67
2023-03-30T02:16:19.804Z,25.67
2023-03-30T02:17:19.831Z,25.71
2023-03-30T02:18:19.937Z,25.68
2023-03-30T02:19:19.954Z,25.72
2023-03-30T02:20:20.003Z,25.74
2023-03-30T02:21:20.044Z,25.74
2023-03-30T02:22:20.120Z,25.76
2023-03-30T02:23:20.186Z,25.77
2023-03-30T02:24:20.245Z,25.76
2023-03-30T02:25:20.304Z,25.82
2023-03-30T02:26:20.349Z,25.80
2023-03-30T02:27:20.394Z,25.79
2023-03-30T02:28:20.451Z,25.83
2023-03-30T02:29:20.525Z,25.88
2023-03-30T02:30:20.595Z,25.91
2023-03-30T02:31:20.701Z,25.87
2023-03-30T02:32:20.696Z,25.90
2023-03-30T02:33:20.762Z,25.95
2023-03-30T02:34:20.854Z,25.95
2023-03-30T02:35:20.869Z,25.91
2023-03-30T02:36:20.977Z,25.95
2023-03-30T02:37:21.002Z,25.98
2023-03-30T02:38:21.074Z,25.96
2023-03-30T02:39:21.120Z,25.96
2023-03-30T02:40:21.168Z,25.93
2023-03-30T02:41:21.248Z,25.91
2023-03-30T02:42:21.321Z,25.91
2023-03-30T02:43:21.381Z,25.91
2023-03-30T02:44:21.461Z,25.88
2023-03-30T02:45:21.518Z,25.90
2023-03-30T02:46:21.789Z,25.87
2023-03-30T02:47:21.629Z,25.92
2023-03-30T02:48:21.671Z,25.95
2023-03-30T02:49:21.793Z,25.94
2023-03-30T02:50:21.835Z,25.95
2023-03-30T02:51:21.872Z,25.99
2023-03-30T02:52:21.933Z,26.00
2023-03-30T02:53:22.011Z,26.06
2023-03-30T02:54:22.040Z,26.08
2023-03-30T02:55:22.124Z,26.09
2023-03-30T02:56:22.257Z,26.12
2023-03-30T02:57:22.407Z,26.07
2023-03-30T02:58:22.304Z,26.04
2023-03-30T02:59:22.370Z,26.01
2023-03-30T03:00:22.428Z,26.02
2023-03-30T03:01:22.524Z,26.01
2023-03-30T03:02:22.615Z,25.96
2023-03-30T03:03:22.741Z,25.93
2023-03-30T03:04:22.661Z,25.91
2023-03-30T03:05:22.737Z,25.88
2023-03-30T03:06:22.791Z,25.88
2023-03-30T03:07:22.860Z,25.87
2023-03-30T03:08:22.913Z,25.87
2023-03-30T03:09:22.970Z,25.87
2023-03-30T03:10:23.037Z,25.85
2023-03-30T03:11:23.065Z,25.86
2023-03-30T03:12:23.209Z,25.84
2023-03-30T03:13:23.203Z,25.82
2023-03-30T03:14:23.261Z,25.81
2023-03-30T03:15:23.324Z,25.82
2023-03-30T03:16:23.422Z,25.82
2023-03-30T03:17:23.458Z,25.81
2023-03-30T03:18:23.471Z,25.82
2023-03-30T03:19:23.498Z,25.85
2023-03-30T03:20:23.507Z,25.82
2023-03-30T03:21:23.529Z,25.82
2023-03-30T03:22:23.571Z,25.83
2023-03-30T03:23:23.598Z,25.86
2023-03-30T03:24:23.628Z,25.85
2023-03-30T03:25:23.647Z,25.84
2023-03-30T03:26:23.724Z,25.87
2023-03-30T03:27:23.772Z,25.85
2023-03-30T03:28:23.860Z,25.84
2023-03-30T03:29:23.914Z,25.87
2023-03-30T03:30:23.986Z,25.89
2023-03-30T03:31:24.079Z,25.88
2023-03-30T03:32:24.139Z,25.88
2023-03-30T03:33:24.181Z,25.90
2023-03-30T03:34:24.231Z,25.90
2023-03-30T03:35:24.284Z,25.94
2023-03-30T03:36:24.373Z,25.93
2023-03-30T03:37:24.424Z,25.94
2023-03-30T03:38:24.484Z,25.98
2023-03-30T03:39:24.538Z,25.95
2023-03-30T03:40:24.583Z,25.95
2023-03-30T03:41:24.639Z,25.95
2023-03-30T03:42:24.702Z,25.92
2023-03-30T03:43:24.751Z,25.93
2023-03-30T03:44:24.804Z,25.94
2023-03-30T03:45:24.848Z,25.95
2023-03-30T03:46:24.947Z,25.95
2023-03-30T03:47:24.999Z,25.95
2023-03-30T03:48:25.017Z,25.97
2023-03-30T03:49:25.074Z,25.95
2023-03-30T03:50:25.157Z,25.97
2023-03-30T03:51:25.213Z,25.97
2023-03-30T03:52:25.249Z,25.99
2023-03-30T03:53:25.305Z,26.02
2023-03-30T03:54:25.359Z,26.01
2023-03-30T03:55:25.433Z,26.03
2023-03-30T03:56:25.504Z,26.02
2023-03-30T03:57:25.595Z,26.03
2023-03-30T03:58:25.624Z,26.05
2023-03-30T03:59:25.643Z,26.05
2023-03-30T04:00:25.721Z,26.06
2023-03-30T04:01:25.778Z,26.09
2023-03-30T04:02:25.912Z,26.08
2023-03-30T04:03:25.935Z,26.08
2023-03-30T04:04:25.990Z,26.10
2023-03-30T04:05:26.000Z,26.09
2023-03-30T04:06:26.056Z,26.09
2023-03-30T04:07:26.116Z,26.11
2023-03-30T04:08:26.172Z,26.10
2023-03-30T04:09:26.248Z,26.07
2023-03-30T04:10:26.297Z,26.08
2023-03-30T04:11:26.339Z,26.06
2023-03-30T04:12:26.410Z,26.07
2023-03-30T04:13:26.484Z,26.08
2023-03-30T04:14:26.544Z,26.09
2023-03-30T04:15:26.605Z,26.09
2023-03-30T04:16:26.802Z,26.09
2023-03-30T04:17:26.723Z,26.10
2023-03-30T04:18:26.788Z,26.06
2023-03-30T04:19:26.834Z,26.05
2023-03-30T04:20:26.891Z,26.04
2023-03-30T04:21:26.945Z,26.01
2023-03-30T04:22:26.992Z,26.02
2023-03-30T04:23:27.051Z,26.02
2023-03-30T04:24:27.101Z,26.01
2023-03-30T04:25:27.154Z,26.01
2023-03-30T04:26:27.224Z,26.00
2023-03-30T04:27:27.294Z,26.01
2023-03-30T04:28:27.357Z,25.99
2023-03-30T04:29:27.401Z,25.96
2023-03-30T04:30:27.481Z,25.98
2023-03-30T04:31:27.567Z,25.98
2023-03-30T04:32:27.594Z,25.96
2023-03-30T04:33:27.664Z,25.97
2023-03-30T04:34:27.719Z,25.96
2023-03-30T04:35:27.761Z,25.95
2023-03-30T04:36:27.847Z,25.98
2023-03-30T04:37:27.897Z,25.97
2023-03-30T04:38:27.962Z,25.94
2023-03-30T04:39:28.007Z,25.95
2023-03-30T04:40:28.103Z,25.93
2023-03-30T04:41:28.144Z,25.93
2023-03-30T04:42:28.220Z,25.92
2023-03-30T04:43:28.270Z,25.95
2023-03-30T04:44:28.323Z,25.94
2023-03-30T04:45:28.371Z,25.93
2023-03-30T04:46:28.388Z,25.93
2023-03-30T04:47:28.428Z,25.94
2023-03-30T04:48:28.464Z,25.96
2023-03-30T04:49:28.474Z,25.94
2023-03-30T04:50:28.490Z,25.95
2023-03-30T04:51:28.526Z,25.95
2023-03-30T04:52:28.546Z,25.95
2023-03-30T04:53:28.578Z,25.94
2023-03-30T04:54:29.674Z,25.96
2023-03-30T04:55:28.708Z,25.95
2023-03-30T04:56:28.786Z,25.96
2023-03-30T04:57:28.925Z,25.96
2023-03-30T04:58:28.898Z,25.98
2023-03-30T04:59:28.945Z,25.96
2023-03-30T05:00:28.991Z,25.96
2023-03-30T05:01:29.149Z,25.99
2023-03-30T05:02:29.147Z,25.98
2023-03-30T05:03:29.251Z,26.08
2023-03-30T05:04:29.251Z,26.12
2023-03-30T05:05:29.303Z,26.22
2023-03-30T05:06:29.328Z,26.25
2023-03-30T05:07:29.359Z,26.21
2023-03-30T05:08:29.407Z,26.29
2023-03-30T05:09:29.453Z,26.29
2023-03-30T05:10:29.518Z,26.30
2023-03-30T05:11:29.542Z,26.31
2023-03-30T05:12:29.554Z,26.40
2023-03-30T05:13:29.609Z,26.44
2023-03-30T05:14:29.658Z,26.42
2023-03-30T05:15:29.671Z,26.48
2023-03-30T05:16:29.762Z,26.50
2023-03-30T05:17:29.764Z,26.54
2023-03-30T05:18:29.778Z,26.53
2023-03-30T05:19:29.790Z,26.56
2023-03-30T05:20:29.863Z,26.58
2023-03-30T05:21:29.890Z,26.59
2023-03-30T05:22:29.923Z,26.61
2023-03-30T05:23:30.021Z,26.66
2023-03-30T05:24:30.034Z,26.70
2023-03-30T05:25:30.077Z,26.76
2023-03-30T05:26:30.192Z,26.77
2023-03-30T05:27:30.125Z,27.28
2023-03-30T05:28:32.404Z,26.97
2023-03-30T05:29:30.166Z,27.87
2023-03-30T05:30:30.148Z,27.88
2023-03-30T05:31:30.196Z,28.51
2023-03-30T05:32:30.161Z,28.55
2023-03-30T05:33:30.176Z,28.59
2023-03-30T05:34:30.154Z,28.77
2023-03-30T05:35:30.201Z,28.67
2023-03-30T05:36:30.167Z,29.07
2023-03-30T05:37:30.172Z,29.15
2023-03-30T05:38:30.166Z,29.07
2023-03-30T05:39:30.165Z,28.86
2023-03-30T05:40:30.172Z,29.45
2023-03-30T05:41:30.193Z,29.91
2023-03-30T05:42:30.158Z,29.46
2023-03-30T05:43:30.141Z,29.25
2023-03-30T05:44:30.642Z,29.58
2023-03-30T05:45:30.234Z,29.00
2023-03-30T05:46:30.325Z,28.94
2023-03-30T05:47:30.420Z,29.18
2023-03-30T05:48:30.420Z,29.03
2023-03-30T05:49:30.497Z,28.88
2023-03-30T05:50:30.516Z,28.94
2023-03-30T05:51:30.557Z,28.94
2023-03-30T05:52:30.586Z,28.75
2023-03-30T05:53:30.615Z,29.12
2023-03-30T05:54:30.642Z,28.98
2023-03-30T05:55:30.692Z,28.79
2023-03-30T05:56:30.732Z,28.68
2023-03-30T05:57:30.911Z,28.95
2023-03-30T05:58:30.773Z,28.54
2023-03-30T05:59:31.130Z,28.78
2023-03-30T06:00:30.820Z,28.68
2023-03-30T06:01:30.863Z,28.71
2023-03-30T06:02:30.907Z,29.77
2023-03-30T06:03:31.074Z,29.65
2023-03-30T06:04:30.941Z,29.62
2023-03-30T06:05:30.943Z,29.31
2023-03-30T06:06:30.957Z,29.22
2023-03-30T06:07:30.969Z,28.96
2023-03-30T06:08:31.040Z,28.96
2023-03-30T06:09:31.069Z,29.18
2023-03-30T06:10:31.006Z,28.93
2023-03-30T06:11:31.044Z,29.08
2023-03-30T06:12:31.075Z,28.84
2023-03-30T06:13:31.046Z,28.81
2023-03-30T06:14:31.050Z,29.07
2023-03-30T06:15:31.088Z,29.02
2023-03-30T06:16:31.103Z,28.87
2023-03-30T06:17:31.151Z,28.83
2023-03-30T06:18:31.113Z,28.53
2023-03-30T06:19:31.110Z,28.51
2023-03-30T06:20:31.164Z,28.69
2023-03-30T06:21:31.116Z,28.76
2023-03-30T06:22:31.996Z,28.74
2023-03-30T06:23:31.129Z,28.76
2023-03-30T06:24:31.229Z,28.78
2023-03-30T06:25:31.140Z,28.99
2023-03-30T06:26:31.113Z,29.68
2023-03-30T06:27:31.232Z,29.45
2023-03-30T06:28:31.113Z,29.21
2023-03-30T06:29:31.134Z,29.20
2023-03-30T06:30:31.123Z,29.95
2023-03-30T06:31:31.145Z,29.59
2023-03-30T06:32:31.680Z,29.45
2023-03-30T06:33:31.202Z,30.00
2023-03-30T06:34:31.255Z,30.04
2023-03-30T06:35:31.311Z,29.90
2023-03-30T06:36:45.292Z,29.80
2023-03-30T06:37:32.331Z,30.40
2023-03-30T06:38:31.327Z,30.42
2023-03-30T06:39:31.337Z,30.47
2023-03-30T06:40:31.644Z,30.68
2023-03-30T06:41:31.531Z,30.80
2023-03-30T06:42:31.328Z,30.96
2023-03-30T06:43:31.294Z,31.09
2023-03-30T06:44:31.313Z,31.30
2023-03-30T06:45:31.313Z,31.47
2023-03-30T06:46:31.365Z,31.67
2023-03-30T06:47:31.322Z,31.82
2023-03-30T06:48:31.650Z,32.03
2023-03-30T06:49:31.273Z,32.13
2023-03-30T06:50:31.646Z,32.30
2023-03-30T06:51:31.253Z,32.46
2023-03-30T06:52:31.291Z,32.51
2023-03-30T06:53:31.348Z,32.64
2023-03-30T06:54:31.385Z,32.78
2023-03-30T06:55:31.805Z,32.77
2023-03-30T06:56:31.400Z,32.91
2023-03-30T06:57:31.466Z,32.88
2023-03-30T06:58:31.452Z,33.02
2023-03-30T06:59:33.267Z,33.07
2023-03-30T07:00:31.450Z,33.07
2023-03-30T07:01:31.477Z,33.12
2023-03-30T07:02:31.458Z,32.99
2023-03-30T07:03:31.649Z,33.05
2023-03-30T07:04:31.466Z,33.07
2023-03-30T07:05:31.439Z,33.13
2023-03-30T07:06:31.407Z,33.16
2023-03-30T07:07:31.416Z,33.26
2023-03-30T07:08:31.401Z,33.36
2023-03-30T07:09:31.395Z,33.54
2023-03-30T07:10:31.402Z,33.60
2023-03-30T07:11:31.657Z,33.72
2023-03-30T07:12:31.386Z,33.87
2023-03-30T07:13:31.674Z,34.00
2023-03-30T07:14:31.386Z,34.07
2023-03-30T07:15:31.376Z,34.19
2023-03-30T07:16:31.375Z,34.24
2023-03-30T07:17:31.376Z,34.34
2023-03-30T07:18:31.351Z,34.44
2023-03-30T07:19:31.329Z,34.55
2023-03-30T07:20:31.339Z,34.66
2023-03-30T07:21:31.330Z,34.71
2023-03-30T07:22:31.322Z,34.89
2023-03-30T07:23:31.318Z,35.06
2023-03-30T07:24:31.302Z,35.10
2023-03-30T07:25:31.292Z,35.24
2023-03-30T07:26:31.661Z,35.37
2023-03-30T07:27:31.283Z,35.53
2023-03-30T07:28:31.267Z,36.02
2023-03-30T07:29:31.266Z,36.65
2023-03-30T07:30:31.281Z,37.37
2023-03-30T07:31:31.751Z,37.63
2023-03-30T07:32:31.329Z,37.65
2023-03-30T07:33:31.731Z,37.53
2023-03-30T07:34:31.235Z,37.37
2023-03-30T07:35:31.250Z,37.03
2023-03-30T07:36:31.219Z,36.81
2023-03-30T07:37:31.203Z,36.52
2023-03-30T07:38:31.214Z,36.14
2023-03-30T07:39:33.828Z,35.62
2023-03-30T07:40:31.392Z,35.18
2023-03-30T07:41:31.202Z,35.18
2023-03-30T07:42:31.175Z,34.83
2023-03-30T07:43:31.183Z,34.40
2023-03-30T07:44:31.173Z,34.16
2023-03-30T07:45:31.207Z,34.06
2023-03-30T07:46:31.234Z,34.06
2023-03-30T07:47:31.180Z,33.72
2023-03-30T07:48:31.181Z,33.48
2023-03-30T07:49:31.150Z,33.70
2023-03-30T07:50:31.134Z,33.52
2023-03-30T07:51:31.136Z,33.28
2023-03-30T07:52:31.167Z,32.96
2023-03-30T07:53:31.141Z,32.54
2023-03-30T07:54:31.110Z,32.44
2023-03-30T07:55:31.104Z,32.29
2023-03-30T07:56:31.109Z,32.18
2023-03-30T07:57:31.252Z,31.93
2023-03-30T07:58:31.079Z,32.13
2023-03-30T07:59:31.081Z,31.96
2023-03-30T08:00:31.126Z,31.80
2023-03-30T08:01:31.060Z,31.48
2023-03-30T08:02:31.203Z,31.64
2023-03-30T08:03:31.197Z,31.72
2023-03-30T08:04:31.169Z,31.93
2023-03-30T08:05:31.059Z,31.65
2023-03-30T08:06:31.044Z,32.13
2023-03-30T08:07:31.020Z,32.02
2023-03-30T08:08:31.027Z,31.94
2023-03-30T08:09:31.011Z,31.69
2023-03-30T08:10:31.010Z,32.27
2023-03-30T08:11:31.003Z,31.65
2023-03-30T08:12:31.004Z,31.59
2023-03-30T08:13:30.979Z,31.16
2023-03-30T08:14:30.995Z,31.59
2023-03-30T08:15:30.988Z,31.58
2023-03-30T08:16:31.021Z,31.29
2023-03-30T08:17:31.094Z,31.20
2023-03-30T08:18:30.961Z,31.00
2023-03-30T08:19:30.942Z,30.99
2023-03-30T08:20:30.950Z,31.66
2023-03-30T08:21:30.943Z,31.59
2023-03-30T08:22:30.942Z,31.75
2023-03-30T08:23:30.925Z,31.65
2023-03-30T08:24:30.936Z,31.67
2023-03-30T08:25:31.193Z,31.95
2023-03-30T08:26:30.917Z,32.14
2023-03-30T08:27:30.912Z,32.53
2023-03-30T08:28:30.930Z,32.61
2023-03-30T08:29:30.902Z,32.66
2023-03-30T08:30:30.896Z,33.30
2023-03-30T08:31:30.931Z,33.54
2023-03-30T08:32:30.925Z,33.81
2023-03-30T08:33:30.878Z,33.97
2023-03-30T08:34:30.859Z,33.92
2023-03-30T08:35:30.919Z,33.82
2023-03-30T08:36:30.871Z,34.20
2023-03-30T08:37:30.876Z,34.70
2023-03-30T08:38:30.861Z,34.92
2023-03-30T08:39:30.896Z,35.11
2023-03-30T08:40:30.841Z,35.09
2023-03-30T08:41:30.833Z,35.19
2023-03-30T08:42:30.825Z,35.19
2023-03-30T08:43:30.826Z,35.06
2023-03-30T08:44:30.808Z,34.87
2023-03-30T08:45:30.881Z,34.29
2023-03-30T08:46:30.942Z,34.16
2023-03-30T08:47:30.910Z,34.32
2023-03-30T08:48:30.931Z,34.38
2023-03-30T08:49:30.991Z,34.35
2023-03-30T08:50:31.030Z,34.23
2023-03-30T08:51:31.047Z,34.32
2023-03-30T08:52:31.095Z,34.06
2023-03-30T08:53:31.101Z,33.78
2023-03-30T08:54:31.125Z,33.68
2023-03-30T08:55:31.182Z,33.99
2023-03-30T08:56:31.170Z,33.79
2023-03-30T08:57:31.196Z,33.84
2023-03-30T08:58:31.215Z,33.61
2023-03-30T08:59:31.199Z,33.98
2023-03-30T09:00:31.775Z,33.90
2023-03-30T09:01:31.289Z,33.32
2023-03-30T09:02:31.216Z,33.46
2023-03-30T09:03:31.188Z,33.46
2023-03-30T09:04:31.214Z,33.31
2023-03-30T09:05:31.811Z,33.39
2023-03-30T09:06:31.263Z,33.35
2023-03-30T09:07:31.295Z,33.19
2023-03-30T09:08:31.345Z,33.15
2023-03-30T09:09:31.426Z,33.31
2023-03-30T09:10:31.736Z,33.18
2023-03-30T09:11:31.524Z,32.99
2023-03-30T09:12:31.637Z,33.02
2023-03-30T09:13:31.662Z,33.38
2023-03-30T09:14:31.704Z,33.27
2023-03-30T09:15:32.425Z,33.45
2023-03-30T09:16:31.862Z,33.28
2023-03-30T09:17:31.961Z,33.04
2023-03-30T09:18:31.936Z,33.13
2023-03-30T09:19:32.009Z,33.07
2023-03-30T09:20:32.122Z,32.95
2023-03-30T09:21:32.125Z,33.05
2023-03-30T09:22:32.180Z,33.20
2023-03-30T09:23:32.237Z,33.24
2023-03-30T09:24:32.286Z,33.20
2023-03-30T09:25:32.356Z,33.09
2023-03-30T09:26:32.712Z,33.20
2023-03-30T09:27:32.429Z,32.83
2023-03-30T09:28:32.481Z,33.29
2023-03-30T09:29:32.461Z,34.04
2023-03-30T09:30:32.521Z,34.76
2023-03-30T09:31:32.916Z,35.06
2023-03-30T09:32:32.699Z,35.49
2023-03-30T09:33:32.613Z,35.67
2023-03-30T09:34:32.675Z,35.45
2023-03-30T09:35:40.257Z,35.72
2023-03-30T09:36:32.798Z,35.51
2023-03-30T09:37:32.770Z,35.07
2023-03-30T09:38:32.630Z,35.08
2023-03-30T09:39:33.620Z,34.63
2023-03-30T09:40:32.660Z,34.74
2023-03-30T09:41:32.767Z,35.18
2023-03-30T09:42:32.614Z,35.32
2023-03-30T09:43:32.623Z,34.99
2023-03-30T09:44:32.616Z,34.91
2023-03-30T09:45:33.442Z,34.68
2023-03-30T09:46:32.644Z,35.33
2023-03-30T09:47:32.641Z,34.79
2023-03-30T09:48:32.618Z,34.69
2023-03-30T09:49:32.562Z,34.50
2023-03-30T09:50:32.563Z,34.20
2023-03-30T09:51:34.233Z,34.09
2023-03-30T09:52:32.641Z,34.17
2023-03-30T09:53:32.708Z,34.18
2023-03-30T09:54:32.754Z,34.06
2023-03-30T09:55:32.836Z,34.08
2023-03-30T09:56:32.855Z,34.09
2023-03-30T09:57:32.980Z,33.92
2023-03-30T09:58:32.934Z,33.84
2023-03-30T09:59:32.988Z,33.87
2023-03-30T10:00:33.027Z,33.78
2023-03-30T10:01:33.210Z,33.56
2023-03-30T10:02:33.200Z,33.43
2023-03-30T10:03:33.295Z,33.51
2023-03-30T10:04:33.296Z,33.32
2023-03-30T10:05:33.297Z,33.34
2023-03-30T10:06:33.319Z,33.06
2023-03-30T10:07:33.361Z,33.00
2023-03-30T10:08:33.398Z,32.98
2023-03-30T10:09:33.451Z,32.89
2023-03-30T10:10:33.522Z,32.86
2023-03-30T10:11:33.544Z,32.89
2023-03-30T10:12:33.605Z,32.89
2023-03-30T10:13:33.632Z,32.87
2023-03-30T10:14:33.679Z,32.75
2023-03-30T10:15:33.851Z,32.75
2023-03-30T10:16:33.891Z,32.75
2023-03-30T10:17:33.837Z,32.65
2023-03-30T10:18:33.801Z,32.53
2023-03-30T10:19:35.533Z,32.51
2023-03-30T10:20:33.860Z,32.41
2023-03-30T10:21:33.850Z,32.49
2023-03-30T10:22:35.807Z,32.39
2023-03-30T10:23:34.796Z,32.59
2023-03-30T10:24:33.793Z,32.91
2023-03-30T10:25:33.845Z,33.54
2023-03-30T10:26:34.299Z,33.63
2023-03-30T10:27:33.822Z,34.08
2023-03-30T10:28:33.782Z,34.12
2023-03-30T10:29:33.771Z,33.94
2023-03-30T10:30:33.831Z,33.68
2023-03-30T10:31:34.020Z,33.54
2023-03-30T10:32:34.312Z,33.46
2023-03-30T10:33:34.024Z,33.64
2023-03-30T10:34:34.073Z,34.75
2023-03-30T10:35:34.154Z,35.38
2023-03-30T10:36:34.134Z,35.57
2023-03-30T10:37:34.149Z,35.72
2023-03-30T10:38:34.206Z,36.35
2023-03-30T10:39:34.226Z,36.91
2023-03-30T10:40:34.239Z,36.93
2023-03-30T10:41:34.209Z,37.08
2023-03-30T10:42:34.258Z,36.71
2023-03-30T10:43:34.353Z,36.35
2023-03-30T10:44:34.362Z,35.82
2023-03-30T10:45:34.426Z,35.85
2023-03-30T10:46:34.504Z,35.63
2023-03-30T10:47:34.570Z,35.55
2023-03-30T10:48:34.519Z,35.22
2023-03-30T10:49:34.517Z,35.04
2023-03-30T10:50:34.538Z,34.85
2023-03-30T10:51:34.578Z,34.88
2023-03-30T10:52:34.572Z,34.46
2023-03-30T10:53:34.608Z,34.20
2023-03-30T10:54:34.675Z,34.07
2023-03-30T10:55:34.712Z,33.90
2023-03-30T10:56:35.274Z,33.81
2023-03-30T10:57:35.287Z,33.80
2023-03-30T10:58:34.870Z,33.60
2023-03-30T10:59:34.893Z,33.48
2023-03-30T11:00:34.925Z,33.34
2023-03-30T11:01:35.070Z,33.32
2023-03-30T11:02:35.100Z,33.19
2023-03-30T11:03:35.341Z,33.15
2023-03-30T11:04:35.043Z,33.18
2023-03-30T11:05:35.063Z,33.08
2023-03-30T11:06:35.071Z,33.23
2023-03-30T11:07:35.274Z,33.30
2023-03-30T11:08:35.193Z,33.13
2023-03-30T11:09:35.145Z,33.10
2023-03-30T11:10:35.287Z,33.11
2023-03-30T11:11:35.179Z,33.21
2023-03-30T11:12:35.323Z,33.35
2023-03-30T11:13:35.199Z,33.34
2023-03-30T11:14:35.291Z,33.34
2023-03-30T11:15:35.270Z,33.12
2023-03-30T11:16:35.312Z,32.99
2023-03-30T11:17:36.329Z,32.70
2023-03-30T11:18:35.409Z,32.72
2023-03-30T11:19:35.397Z,32.27
2023-03-30T11:20:35.381Z,31.90
2023-03-30T11:21:35.477Z,31.50
2023-03-30T11:22:35.801Z,31.28
2023-03-30T11:23:35.497Z,31.13
2023-03-30T11:24:35.539Z,31.00
2023-03-30T11:25:35.578Z,30.92
2023-03-30T11:26:35.803Z,31.08
2023-03-30T11:27:36.282Z,31.03
2023-03-30T11:28:36.273Z,31.13
2023-03-30T11:29:35.802Z,31.32
2023-03-30T11:30:36.767Z,31.20
2023-03-30T11:31:35.926Z,31.40
2023-03-30T11:32:35.901Z,31.57
2023-03-30T11:33:35.963Z,31.49
2023-03-30T11:34:35.988Z,31.46
2023-03-30T11:35:36.061Z,31.52
2023-03-30T11:36:36.062Z,31.45
2023-03-30T11:37:36.093Z,31.38
2023-03-30T11:38:36.104Z,31.32
2023-03-30T11:39:36.143Z,31.23
2023-03-30T11:40:36.156Z,31.22
2023-03-30T11:41:36.160Z,31.20
2023-03-30T11:42:36.182Z,31.22
2023-03-30T11:43:36.227Z,31.15
2023-03-30T11:44:36.251Z,30.93
2023-03-30T11:45:36.250Z,30.85
2023-03-30T11:46:36.325Z,30.94
2023-03-30T11:47:36.367Z,31.91
2023-03-30T11:48:36.362Z,31.67
2023-03-30T11:49:36.422Z,32.20
2023-03-30T11:50:36.444Z,32.07
2023-03-30T11:51:36.500Z,31.44
2023-03-30T11:52:36.552Z,32.53
2023-03-30T11:53:36.606Z,32.18
2023-03-30T11:54:36.681Z,31.57
2023-03-30T11:55:36.733Z,32.06
2023-03-30T11:56:36.790Z,31.69
2023-03-30T11:57:36.844Z,31.54
2023-03-30T11:58:36.920Z,31.79
2023-03-30T11:59:36.978Z,31.85
2023-03-30T12:00:37.081Z,31.86
2023-03-30T12:01:37.108Z,31.83
2023-03-30T12:02:37.217Z,31.87
2023-03-30T12:03:37.449Z,31.87
2023-03-30T12:04:38.615Z,31.80
2023-03-30T12:05:37.349Z,31.93
2023-03-30T12:06:37.463Z,32.01
2023-03-30T12:07:37.511Z,31.97
2023-03-30T12:08:37.543Z,32.01
2023-03-30T12:09:37.609Z,32.03
2023-03-30T12:10:37.640Z,31.95
2023-03-30T12:11:37.707Z,31.97
2023-03-30T12:12:37.812Z,31.92
2023-03-30T12:13:50.140Z,31.96
2023-03-30T12:14:38.831Z,31.93
2023-03-30T12:15:37.806Z,32.00
2023-03-30T12:16:37.972Z,31.96
2023-03-30T12:17:37.837Z,31.96
2023-03-30T12:18:37.801Z,31.93
2023-03-30T12:19:49.194Z,31.93
2023-03-30T12:20:38.775Z,31.95
2023-03-30T12:21:37.777Z,31.93
2023-03-30T12:22:37.811Z,31.97
2023-03-30T12:23:37.808Z,31.92
2023-03-30T12:24:37.757Z,31.91
2023-03-30T12:25:37.760Z,31.84
2023-03-30T12:26:37.742Z,31.88
2023-03-30T12:27:37.834Z,31.88
2023-03-30T12:28:54.939Z,31.89
2023-03-30T12:30:37.747Z,31.87
2023-03-30T12:31:37.806Z,31.81
2023-03-30T12:32:37.845Z,31.82
2023-03-30T12:33:37.743Z,31.86
2023-03-30T12:34:37.777Z,31.84
2023-03-30T12:35:37.726Z,31.74
2023-03-30T12:36:37.743Z,31.42
2023-03-30T12:37:37.727Z,31.82
2023-03-30T12:38:37.713Z,32.23
2023-03-30T12:39:37.697Z,32.50
2023-03-30T12:40:37.703Z,32.62
2023-03-30T12:41:37.716Z,33.01
2023-03-30T12:42:37.702Z,33.08
2023-03-30T12:43:37.753Z,33.20
2023-03-30T12:44:37.721Z,33.28
2023-03-30T12:45:37.762Z,33.33
2023-03-30T12:46:37.860Z,33.41
2023-03-30T12:47:37.751Z,33.56
2023-03-30T12:48:37.662Z,33.72
2023-03-30T12:49:37.639Z,33.78
2023-03-30T12:50:37.637Z,33.78
2023-03-30T12:51:37.635Z,33.89
2023-03-30T12:52:37.627Z,34.00
2023-03-30T12:53:37.612Z,34.21